sensor_id;sensor_type;location;lat;lon;timestamp;P1;durP1;ratioP1;P2;durP2;ratioP2
2928;SDS011;1474;51.460;7.150;2023-04-24T00:00:27;0.40;;;0.40;;
2928;SDS011;1474;51.460;7.150;2023-04-24T00:02:55;0.73;;;0.30;;
2928;SDS011;1474;51.460;7.150;2023-04-24T00:05:22;1.02;;;0.40;;
2928;SDS011;1474;51.460;7.150;2023-04-24T00:07:49;0.95;;;0.50;;
2928;SDS011;1474;51.460;7.150;2023-04-24T00:10:18;0.35;;;0.35;;
2928;SDS011;1474;51.460;7.150;2023-04-24T00:12:44;0.90;;;0.43;;
2928;SDS011;1474;51.460;7.150;2023-04-24T00:15:10;1.33;;;0.35;;
2928;SDS011;1474;51.460;7.150;2023-04-24T00:17:37;0.30;;;0.30;;
2928;SDS011;1474;51.460;7.150;2023-04-24T00:20:03;0.60;;;0.50;;
2928;SDS011;1474;51.460;7.150;2023-04-24T00:22:32;0.77;;;0.43;;
2928;SDS011;1474;51.460;7.150;2023-04-24T00:24:58;1.70;;;0.73;;
2928;SDS011;1474;51.460;7.150;2023-04-24T00:27:24;1.80;;;0.68;;
2928;SDS011;1474;51.460;7.150;2023-04-24T00:29:51;1.05;;;0.52;;
2928;SDS011;1474;51.460;7.150;2023-04-24T00:32:18;1.48;;;0.63;;
2928;SDS011;1474;51.460;7.150;2023-04-24T00:34:45;0.85;;;0.57;;
2928;SDS011;1474;51.460;7.150;2023-04-24T00:37:12;0.70;;;0.50;;
2928;SDS011;1474;51.460;7.150;2023-04-24T00:39:39;0.73;;;0.60;;
2928;SDS011;1474;51.460;7.150;2023-04-24T00:42:06;2.75;;;0.77;;
2928;SDS011;1474;51.460;7.150;2023-04-24T00:44:35;2.15;;;0.70;;
2928;SDS011;1474;51.460;7.150;2023-04-24T00:47:04;0.70;;;0.70;;
2928;SDS011;1474;51.460;7.150;2023-04-24T00:49:31;0.68;;;0.50;;
2928;SDS011;1474;51.460;7.150;2023-04-24T00:51:57;1.42;;;0.57;;
2928;SDS011;1474;51.460;7.150;2023-04-24T00:54:24;1.23;;;1.13;;
2928;SDS011;1474;51.460;7.150;2023-04-24T00:56:51;1.33;;;1.00;;
2928;SDS011;1474;51.460;7.150;2023-04-24T00:59:22;3.05;;;0.70;;
2928;SDS011;1474;51.460;7.150;2023-04-24T01:01:48;1.13;;;0.60;;
2928;SDS011;1474;51.460;7.150;2023-04-24T01:04:14;1.10;;;0.73;;
2928;SDS011;1474;51.460;7.150;2023-04-24T01:06:43;1.00;;;0.75;;
2928;SDS011;1474;51.460;7.150;2023-04-24T01:09:10;1.02;;;0.93;;
2928;SDS011;1474;51.460;7.150;2023-04-24T01:11:37;1.08;;;0.90;;
2928;SDS011;1474;51.460;7.150;2023-04-24T01:14:03;1.48;;;0.93;;
2928;SDS011;1474;51.460;7.150;2023-04-24T01:16:29;1.13;;;1.02;;
2928;SDS011;1474;51.460;7.150;2023-04-24T01:18:55;1.23;;;0.95;;
2928;SDS011;1474;51.460;7.150;2023-04-24T01:21:20;2.90;;;0.90;;
2928;SDS011;1474;51.460;7.150;2023-04-24T01:23:48;1.20;;;1.10;;
2928;SDS011;1474;51.460;7.150;2023-04-24T01:26:17;1.88;;;1.20;;
2928;SDS011;1474;51.460;7.150;2023-04-24T01:28:45;1.63;;;1.17;;
2928;SDS011;1474;51.460;7.150;2023-04-24T01:31:11;1.52;;;1.42;;
2928;SDS011;1474;51.460;7.150;2023-04-24T01:33:37;2.42;;;1.10;;
2928;SDS011;1474;51.460;7.150;2023-04-24T01:36:02;2.10;;;1.00;;
2928;SDS011;1474;51.460;7.150;2023-04-24T01:38:28;1.35;;;1.13;;
2928;SDS011;1474;51.460;7.150;2023-04-24T01:40:54;3.30;;;1.40;;
2928;SDS011;1474;51.460;7.150;2023-04-24T01:43:20;3.28;;;2.08;;
2928;SDS011;1474;51.460;7.150;2023-04-24T01:45:45;2.20;;;1.52;;
2928;SDS011;1474;51.460;7.150;2023-04-24T01:48:12;3.20;;;1.63;;
2928;SDS011;1474;51.460;7.150;2023-04-24T01:50:38;2.25;;;1.30;;
2928;SDS011;1474;51.460;7.150;2023-04-24T01:53:04;2.38;;;1.77;;
2928;SDS011;1474;51.460;7.150;2023-04-24T01:55:30;2.03;;;1.60;;
2928;SDS011;1474;51.460;7.150;2023-04-24T01:57:56;1.45;;;1.25;;
2928;SDS011;1474;51.460;7.150;2023-04-24T02:00:22;3.22;;;1.75;;
2928;SDS011;1474;51.460;7.150;2023-04-24T02:02:49;1.77;;;1.35;;
2928;SDS011;1474;51.460;7.150;2023-04-24T02:05:15;1.65;;;1.40;;
2928;SDS011;1474;51.460;7.150;2023-04-24T02:07:40;2.25;;;1.42;;
2928;SDS011;1474;51.460;7.150;2023-04-24T02:10:06;2.33;;;1.80;;
2928;SDS011;1474;51.460;7.150;2023-04-24T02:12:32;2.78;;;2.00;;
2928;SDS011;1474;51.460;7.150;2023-04-24T02:14:58;2.28;;;1.98;;
2928;SDS011;1474;51.460;7.150;2023-04-24T02:17:23;4.97;;;2.35;;
2928;SDS011;1474;51.460;7.150;2023-04-24T02:19:49;3.38;;;2.65;;
2928;SDS011;1474;51.460;7.150;2023-04-24T02:22:15;3.72;;;2.47;;
2928;SDS011;1474;51.460;7.150;2023-04-24T02:24:40;5.25;;;2.80;;
2928;SDS011;1474;51.460;7.150;2023-04-24T02:27:06;4.00;;;3.22;;
2928;SDS011;1474;51.460;7.150;2023-04-24T02:29:32;5.07;;;3.70;;
2928;SDS011;1474;51.460;7.150;2023-04-24T02:31:58;4.55;;;2.92;;
2928;SDS011;1474;51.460;7.150;2023-04-24T02:34:23;4.07;;;2.50;;
2928;SDS011;1474;51.460;7.150;2023-04-24T02:36:49;5.00;;;3.63;;
2928;SDS011;1474;51.460;7.150;2023-04-24T02:39:15;6.30;;;3.00;;
2928;SDS011;1474;51.460;7.150;2023-04-24T02:41:44;5.03;;;3.47;;
2928;SDS011;1474;51.460;7.150;2023-04-24T02:44:09;6.05;;;3.80;;
2928;SDS011;1474;51.460;7.150;2023-04-24T02:46:35;8.55;;;3.97;;
2928;SDS011;1474;51.460;7.150;2023-04-24T02:49:00;6.43;;;4.53;;
2928;SDS011;1474;51.460;7.150;2023-04-24T02:51:26;6.18;;;4.20;;
2928;SDS011;1474;51.460;7.150;2023-04-24T02:53:52;5.60;;;4.13;;
2928;SDS011;1474;51.460;7.150;2023-04-24T02:56:18;8.32;;;4.05;;
2928;SDS011;1474;51.460;7.150;2023-04-24T02:58:44;6.43;;;4.10;;
2928;SDS011;1474;51.460;7.150;2023-04-24T03:01:09;8.93;;;5.20;;
2928;SDS011;1474;51.460;7.150;2023-04-24T03:03:35;6.60;;;4.68;;
2928;SDS011;1474;51.460;7.150;2023-04-24T03:06:02;7.90;;;4.65;;
2928;SDS011;1474;51.460;7.150;2023-04-24T03:08:28;6.13;;;4.32;;
2928;SDS011;1474;51.460;7.150;2023-04-24T03:10:53;6.68;;;4.97;;
2928;SDS011;1474;51.460;7.150;2023-04-24T03:13:19;7.25;;;4.50;;
2928;SDS011;1474;51.460;7.150;2023-04-24T03:15:44;7.53;;;5.57;;
2928;SDS011;1474;51.460;7.150;2023-04-24T03:18:11;5.28;;;3.75;;
2928;SDS011;1474;51.460;7.150;2023-04-24T03:20:37;5.90;;;4.18;;
2928;SDS011;1474;51.460;7.150;2023-04-24T03:23:03;8.23;;;5.00;;
2928;SDS011;1474;51.460;7.150;2023-04-24T03:25:28;6.18;;;4.45;;
2928;SDS011;1474;51.460;7.150;2023-04-24T03:27:54;6.95;;;4.85;;
2928;SDS011;1474;51.460;7.150;2023-04-24T03:30:20;6.50;;;4.57;;
2928;SDS011;1474;51.460;7.150;2023-04-24T03:32:46;7.35;;;4.80;;
2928;SDS011;1474;51.460;7.150;2023-04-24T03:35:11;10.15;;;5.45;;
2928;SDS011;1474;51.460;7.150;2023-04-24T03:37:37;7.53;;;4.72;;
2928;SDS011;1474;51.460;7.150;2023-04-24T03:40:03;9.50;;;4.88;;
2928;SDS011;1474;51.460;7.150;2023-04-24T03:42:30;8.55;;;4.72;;
2928;SDS011;1474;51.460;7.150;2023-04-24T03:44:56;8.77;;;5.03;;
2928;SDS011;1474;51.460;7.150;2023-04-24T03:47:22;6.53;;;4.85;;
2928;SDS011;1474;51.460;7.150;2023-04-24T03:49:47;9.57;;;5.85;;
2928;SDS011;1474;51.460;7.150;2023-04-24T03:52:13;12.35;;;5.82;;
2928;SDS011;1474;51.460;7.150;2023-04-24T03:54:38;10.93;;;4.82;;
2928;SDS011;1474;51.460;7.150;2023-04-24T03:57:04;7.65;;;5.15;;
2928;SDS011;1474;51.460;7.150;2023-04-24T03:59:30;9.20;;;5.10;;
2928;SDS011;1474;51.460;7.150;2023-04-24T04:01:56;12.15;;;5.20;;
2928;SDS011;1474;51.460;7.150;2023-04-24T04:04:21;8.40;;;5.88;;
2928;SDS011;1474;51.460;7.150;2023-04-24T04:06:47;5.85;;;5.05;;
2928;SDS011;1474;51.460;7.150;2023-04-24T04:09:13;8.23;;;4.80;;
2928;SDS011;1474;51.460;7.150;2023-04-24T04:11:39;9.35;;;5.32;;
2928;SDS011;1474;51.460;7.150;2023-04-24T04:14:05;9.68;;;5.50;;
2928;SDS011;1474;51.460;7.150;2023-04-24T04:16:31;8.77;;;5.20;;
2928;SDS011;1474;51.460;7.150;2023-04-24T04:18:56;8.63;;;5.40;;
2928;SDS011;1474;51.460;7.150;2023-04-24T04:21:22;10.73;;;5.63;;
2928;SDS011;1474;51.460;7.150;2023-04-24T04:23:48;15.05;;;4.55;;
2928;SDS011;1474;51.460;7.150;2023-04-24T04:26:13;9.80;;;5.15;;
2928;SDS011;1474;51.460;7.150;2023-04-24T04:28:39;6.72;;;4.95;;
2928;SDS011;1474;51.460;7.150;2023-04-24T04:31:05;8.60;;;4.97;;
2928;SDS011;1474;51.460;7.150;2023-04-24T04:33:32;9.88;;;4.72;;
2928;SDS011;1474;51.460;7.150;2023-04-24T04:35:58;10.75;;;5.43;;
2928;SDS011;1474;51.460;7.150;2023-04-24T04:38:25;9.45;;;5.32;;
2928;SDS011;1474;51.460;7.150;2023-04-24T04:40:54;10.25;;;5.97;;
2928;SDS011;1474;51.460;7.150;2023-04-24T04:43:23;7.72;;;5.00;;
2928;SDS011;1474;51.460;7.150;2023-04-24T04:45:50;8.93;;;5.25;;
2928;SDS011;1474;51.460;7.150;2023-04-24T04:48:19;8.48;;;5.55;;
2928;SDS011;1474;51.460;7.150;2023-04-24T04:50:45;7.07;;;5.85;;
2928;SDS011;1474;51.460;7.150;2023-04-24T04:53:10;9.13;;;5.53;;
2928;SDS011;1474;51.460;7.150;2023-04-24T04:55:36;10.77;;;5.57;;
2928;SDS011;1474;51.460;7.150;2023-04-24T04:58:02;5.60;;;4.93;;
2928;SDS011;1474;51.460;7.150;2023-04-24T05:00:28;7.95;;;5.68;;
2928;SDS011;1474;51.460;7.150;2023-04-24T05:02:58;7.30;;;4.80;;
2928;SDS011;1474;51.460;7.150;2023-04-24T05:05:24;8.95;;;5.70;;
2928;SDS011;1474;51.460;7.150;2023-04-24T05:07:50;7.20;;;5.00;;
2928;SDS011;1474;51.460;7.150;2023-04-24T05:10:15;6.10;;;5.13;;
2928;SDS011;1474;51.460;7.150;2023-04-24T05:12:41;6.70;;;4.93;;
2928;SDS011;1474;51.460;7.150;2023-04-24T05:15:07;11.77;;;5.47;;
2928;SDS011;1474;51.460;7.150;2023-04-24T05:17:32;6.18;;;4.47;;
2928;SDS011;1474;51.460;7.150;2023-04-24T05:19:58;7.75;;;4.63;;
2928;SDS011;1474;51.460;7.150;2023-04-24T05:22:24;8.48;;;4.82;;
2928;SDS011;1474;51.460;7.150;2023-04-24T05:24:49;12.88;;;5.97;;
2928;SDS011;1474;51.460;7.150;2023-04-24T05:27:15;6.68;;;4.32;;
2928;SDS011;1474;51.460;7.150;2023-04-24T05:29:40;7.35;;;4.40;;
2928;SDS011;1474;51.460;7.150;2023-04-24T05:32:06;7.35;;;4.20;;
2928;SDS011;1474;51.460;7.150;2023-04-24T05:34:32;7.00;;;4.50;;
2928;SDS011;1474;51.460;7.150;2023-04-24T05:36:57;5.15;;;4.65;;
2928;SDS011;1474;51.460;7.150;2023-04-24T05:39:23;6.60;;;4.47;;
2928;SDS011;1474;51.460;7.150;2023-04-24T05:41:50;5.20;;;3.83;;
2928;SDS011;1474;51.460;7.150;2023-04-24T05:44:15;7.65;;;4.43;;
2928;SDS011;1474;51.460;7.150;2023-04-24T05:46:41;6.97;;;4.82;;
2928;SDS011;1474;51.460;7.150;2023-04-24T05:49:07;7.30;;;4.47;;
2928;SDS011;1474;51.460;7.150;2023-04-24T05:51:32;7.68;;;5.22;;
2928;SDS011;1474;51.460;7.150;2023-04-24T05:53:58;7.00;;;4.80;;
2928;SDS011;1474;51.460;7.150;2023-04-24T05:56:24;10.30;;;5.45;;
2928;SDS011;1474;51.460;7.150;2023-04-24T05:58:50;9.38;;;4.82;;
2928;SDS011;1474;51.460;7.150;2023-04-24T06:01:16;6.90;;;5.20;;
2928;SDS011;1474;51.460;7.150;2023-04-24T06:03:41;8.18;;;5.13;;
2928;SDS011;1474;51.460;7.150;2023-04-24T06:06:07;7.00;;;5.50;;
2928;SDS011;1474;51.460;7.150;2023-04-24T06:08:33;8.30;;;5.45;;
2928;SDS011;1474;51.460;7.150;2023-04-24T06:11:00;7.45;;;4.93;;
2928;SDS011;1474;51.460;7.150;2023-04-24T06:13:26;6.97;;;5.03;;
2928;SDS011;1474;51.460;7.150;2023-04-24T06:15:52;8.88;;;5.05;;
2928;SDS011;1474;51.460;7.150;2023-04-24T06:18:18;5.80;;;4.75;;
2928;SDS011;1474;51.460;7.150;2023-04-24T06:20:44;4.78;;;3.58;;
2928;SDS011;1474;51.460;7.150;2023-04-24T06:23:10;8.63;;;4.65;;
2928;SDS011;1474;51.460;7.150;2023-04-24T06:25:36;5.03;;;3.88;;
2928;SDS011;1474;51.460;7.150;2023-04-24T06:28:02;6.55;;;4.43;;
2928;SDS011;1474;51.460;7.150;2023-04-24T06:30:28;6.07;;;4.00;;
2928;SDS011;1474;51.460;7.150;2023-04-24T06:32:54;5.22;;;4.40;;
2928;SDS011;1474;51.460;7.150;2023-04-24T06:35:19;8.18;;;4.32;;
2928;SDS011;1474;51.460;7.150;2023-04-24T06:37:45;5.82;;;4.10;;
2928;SDS011;1474;51.460;7.150;2023-04-24T06:40:11;5.90;;;3.75;;
2928;SDS011;1474;51.460;7.150;2023-04-24T06:42:36;7.90;;;4.50;;
2928;SDS011;1474;51.460;7.150;2023-04-24T06:45:02;5.05;;;3.53;;
2928;SDS011;1474;51.460;7.150;2023-04-24T06:47:28;5.03;;;4.13;;
2928;SDS011;1474;51.460;7.150;2023-04-24T06:49:54;5.53;;;3.97;;
2928;SDS011;1474;51.460;7.150;2023-04-24T06:52:20;6.07;;;3.58;;
2928;SDS011;1474;51.460;7.150;2023-04-24T06:54:45;6.28;;;4.70;;
2928;SDS011;1474;51.460;7.150;2023-04-24T06:57:11;5.47;;;4.07;;
2928;SDS011;1474;51.460;7.150;2023-04-24T06:59:37;5.82;;;4.07;;
2928;SDS011;1474;51.460;7.150;2023-04-24T07:02:03;5.32;;;4.07;;
2928;SDS011;1474;51.460;7.150;2023-04-24T07:04:29;7.88;;;4.13;;
2928;SDS011;1474;51.460;7.150;2023-04-24T07:06:55;5.93;;;3.28;;
2928;SDS011;1474;51.460;7.150;2023-04-24T07:09:22;4.45;;;3.08;;
2928;SDS011;1474;51.460;7.150;2023-04-24T07:11:50;6.63;;;4.53;;
2928;SDS011;1474;51.460;7.150;2023-04-24T07:14:16;3.17;;;2.88;;
2928;SDS011;1474;51.460;7.150;2023-04-24T07:16:42;6.10;;;2.50;;
2928;SDS011;1474;51.460;7.150;2023-04-24T07:19:08;2.28;;;2.03;;
2928;SDS011;1474;51.460;7.150;2023-04-24T07:21:34;4.20;;;2.58;;
2928;SDS011;1474;51.460;7.150;2023-04-24T07:24:00;2.88;;;2.17;;
2928;SDS011;1474;51.460;7.150;2023-04-24T07:26:28;2.15;;;1.77;;
2928;SDS011;1474;51.460;7.150;2023-04-24T07:28:54;3.05;;;2.25;;
2928;SDS011;1474;51.460;7.150;2023-04-24T07:31:20;5.47;;;2.58;;
2928;SDS011;1474;51.460;7.150;2023-04-24T07:33:46;3.70;;;2.53;;
2928;SDS011;1474;51.460;7.150;2023-04-24T07:36:12;3.58;;;2.03;;
2928;SDS011;1474;51.460;7.150;2023-04-24T07:38:42;2.15;;;1.90;;
2928;SDS011;1474;51.460;7.150;2023-04-24T07:41:07;2.55;;;1.80;;
2928;SDS011;1474;51.460;7.150;2023-04-24T07:43:33;2.33;;;1.70;;
2928;SDS011;1474;51.460;7.150;2023-04-24T07:45:59;8.25;;;1.75;;
2928;SDS011;1474;51.460;7.150;2023-04-24T07:48:25;2.80;;;1.70;;
2928;SDS011;1474;51.460;7.150;2023-04-24T07:50:51;2.30;;;1.52;;
2928;SDS011;1474;51.460;7.150;2023-04-24T07:53:17;2.78;;;1.70;;
2928;SDS011;1474;51.460;7.150;2023-04-24T07:55:43;3.03;;;1.25;;
2928;SDS011;1474;51.460;7.150;2023-04-24T07:58:08;1.40;;;0.90;;
2928;SDS011;1474;51.460;7.150;2023-04-24T08:00:34;1.63;;;1.27;;
2928;SDS011;1474;51.460;7.150;2023-04-24T08:03:00;0.90;;;0.80;;
2928;SDS011;1474;51.460;7.150;2023-04-24T08:05:26;0.43;;;0.40;;
2928;SDS011;1474;51.460;7.150;2023-04-24T08:07:53;1.25;;;0.55;;
2928;SDS011;1474;51.460;7.150;2023-04-24T08:10:20;0.52;;;0.40;;
2928;SDS011;1474;51.460;7.150;2023-04-24T08:12:46;0.45;;;0.32;;
2928;SDS011;1474;51.460;7.150;2023-04-24T08:15:12;0.30;;;0.30;;
2928;SDS011;1474;51.460;7.150;2023-04-24T08:17:37;0.40;;;0.40;;
2928;SDS011;1474;51.460;7.150;2023-04-24T08:20:03;0.43;;;0.30;;
2928;SDS011;1474;51.460;7.150;2023-04-24T08:22:30;0.40;;;0.40;;
2928;SDS011;1474;51.460;7.150;2023-04-24T08:24:56;0.68;;;0.40;;
2928;SDS011;1474;51.460;7.150;2023-04-24T08:27:26;0.50;;;0.30;;
2928;SDS011;1474;51.460;7.150;2023-04-24T08:29:55;1.45;;;0.45;;
2928;SDS011;1474;51.460;7.150;2023-04-24T08:32:21;0.20;;;0.20;;
2928;SDS011;1474;51.460;7.150;2023-04-24T08:34:47;0.17;;;0.17;;
2928;SDS011;1474;51.460;7.150;2023-04-24T08:37:13;0.20;;;0.20;;
2928;SDS011;1474;51.460;7.150;2023-04-24T08:39:38;0.70;;;0.30;;
2928;SDS011;1474;51.460;7.150;2023-04-24T08:42:04;0.60;;;0.55;;
2928;SDS011;1474;51.460;7.150;2023-04-24T08:44:33;1.70;;;0.60;;
2928;SDS011;1474;51.460;7.150;2023-04-24T08:47:00;0.77;;;0.73;;
2928;SDS011;1474;51.460;7.150;2023-04-24T08:49:27;0.75;;;0.52;;
2928;SDS011;1474;51.460;7.150;2023-04-24T08:51:54;0.82;;;0.77;;
2928;SDS011;1474;51.460;7.150;2023-04-24T08:54:20;0.65;;;0.65;;
2928;SDS011;1474;51.460;7.150;2023-04-24T08:56:47;0.70;;;0.70;;
2928;SDS011;1474;51.460;7.150;2023-04-24T08:59:14;1.00;;;0.80;;
2928;SDS011;1474;51.460;7.150;2023-04-24T09:01:40;0.98;;;0.88;;
2928;SDS011;1474;51.460;7.150;2023-04-24T09:04:07;1.88;;;1.30;;
2928;SDS011;1474;51.460;7.150;2023-04-24T09:06:39;3.38;;;1.20;;
2928;SDS011;1474;51.460;7.150;2023-04-24T09:09:05;2.00;;;1.27;;
2928;SDS011;1474;51.460;7.150;2023-04-24T09:11:32;1.10;;;1.00;;
2928;SDS011;1474;51.460;7.150;2023-04-24T09:13:58;1.15;;;0.90;;
2928;SDS011;1474;51.460;7.150;2023-04-24T09:16:24;1.50;;;1.40;;
2928;SDS011;1474;51.460;7.150;2023-04-24T09:18:51;1.27;;;1.17;;
2928;SDS011;1474;51.460;7.150;2023-04-24T09:21:16;1.38;;;1.08;;
2928;SDS011;1474;51.460;7.150;2023-04-24T09:23:42;1.25;;;1.17;;
2928;SDS011;1474;51.460;7.150;2023-04-24T09:26:08;1.83;;;1.45;;
2928;SDS011;1474;51.460;7.150;2023-04-24T09:28:36;1.80;;;1.02;;
2928;SDS011;1474;51.460;7.150;2023-04-24T09:31:03;1.20;;;1.08;;
2928;SDS011;1474;51.460;7.150;2023-04-24T09:33:53;2.03;;;0.67;;
2928;SDS011;1474;51.460;7.150;2023-04-24T09:36:29;1.85;;;0.77;;
2928;SDS011;1474;51.460;7.150;2023-04-24T09:39:01;1.13;;;0.80;;
2928;SDS011;1474;51.460;7.150;2023-04-24T09:41:27;1.63;;;1.48;;
2928;SDS011;1474;51.460;7.150;2023-04-24T09:43:56;3.10;;;2.17;;
2928;SDS011;1474;51.460;7.150;2023-04-24T09:46:30;3.88;;;2.80;;
2928;SDS011;1474;51.460;7.150;2023-04-24T09:49:03;2.45;;;1.83;;
2928;SDS011;1474;51.460;7.150;2023-04-24T09:51:35;4.00;;;2.42;;
2928;SDS011;1474;51.460;7.150;2023-04-24T09:54:02;3.72;;;2.25;;
2928;SDS011;1474;51.460;7.150;2023-04-24T09:56:37;3.72;;;1.90;;
2928;SDS011;1474;51.460;7.150;2023-04-24T10:01:34;2.85;;;2.03;;
2928;SDS011;1474;51.460;7.150;2023-04-24T10:04:00;3.15;;;2.20;;
2928;SDS011;1474;51.460;7.150;2023-04-24T10:06:33;3.53;;;2.33;;
2928;SDS011;1474;51.460;7.150;2023-04-24T10:08:59;3.78;;;1.85;;
2928;SDS011;1474;51.460;7.150;2023-04-24T10:11:28;3.63;;;2.90;;
2928;SDS011;1474;51.460;7.150;2023-04-24T10:13:55;5.95;;;3.00;;
2928;SDS011;1474;51.460;7.150;2023-04-24T10:16:22;4.95;;;3.13;;
2928;SDS011;1474;51.460;7.150;2023-04-24T10:18:48;3.47;;;2.28;;
2928;SDS011;1474;51.460;7.150;2023-04-24T10:21:15;2.60;;;2.30;;
2928;SDS011;1474;51.460;7.150;2023-04-24T10:23:43;3.53;;;2.47;;
2928;SDS011;1474;51.460;7.150;2023-04-24T10:26:14;3.08;;;2.53;;
2928;SDS011;1474;51.460;7.150;2023-04-24T10:31:09;3.22;;;2.72;;
2928;SDS011;1474;51.460;7.150;2023-04-24T10:33:36;3.97;;;2.78;;
2928;SDS011;1474;51.460;7.150;2023-04-24T10:36:06;4.75;;;3.47;;
2928;SDS011;1474;51.460;7.150;2023-04-24T10:38:33;5.97;;;3.90;;
2928;SDS011;1474;51.460;7.150;2023-04-24T10:41:10;7.28;;;4.25;;
2928;SDS011;1474;51.460;7.150;2023-04-24T10:43:41;3.22;;;2.72;;
2928;SDS011;1474;51.460;7.150;2023-04-24T10:46:07;6.30;;;4.43;;
2928;SDS011;1474;51.460;7.150;2023-04-24T10:48:35;5.30;;;3.15;;
2928;SDS011;1474;51.460;7.150;2023-04-24T10:51:10;5.47;;;3.28;;
2928;SDS011;1474;51.460;7.150;2023-04-24T10:53:38;7.78;;;3.47;;
2928;SDS011;1474;51.460;7.150;2023-04-24T10:56:05;5.32;;;3.83;;
2928;SDS011;1474;51.460;7.150;2023-04-24T10:58:36;6.32;;;3.55;;
2928;SDS011;1474;51.460;7.150;2023-04-24T11:01:11;9.93;;;4.18;;
2928;SDS011;1474;51.460;7.150;2023-04-24T11:03:55;6.95;;;3.45;;
2928;SDS011;1474;51.460;7.150;2023-04-24T11:06:31;7.63;;;4.72;;
2928;SDS011;1474;51.460;7.150;2023-04-24T11:09:06;7.35;;;3.75;;
2928;SDS011;1474;51.460;7.150;2023-04-24T11:11:33;8.60;;;4.20;;
2928;SDS011;1474;51.460;7.150;2023-04-24T11:14:01;7.70;;;4.85;;
2928;SDS011;1474;51.460;7.150;2023-04-24T11:24:32;7.40;;;3.38;;
2928;SDS011;1474;51.460;7.150;2023-04-24T11:29:48;6.15;;;4.15;;
2928;SDS011;1474;51.460;7.150;2023-04-24T11:32:28;8.48;;;4.35;;
2928;SDS011;1474;51.460;7.150;2023-04-24T11:34:56;11.07;;;4.45;;
2928;SDS011;1474;51.460;7.150;2023-04-24T11:37:24;6.53;;;4.35;;
2928;SDS011;1474;51.460;7.150;2023-04-24T11:39:56;9.73;;;4.70;;
2928;SDS011;1474;51.460;7.150;2023-04-24T11:42:23;9.57;;;4.30;;
2928;SDS011;1474;51.460;7.150;2023-04-24T11:44:51;8.45;;;4.03;;
2928;SDS011;1474;51.460;7.150;2023-04-24T11:47:18;5.28;;;3.35;;
2928;SDS011;1474;51.460;7.150;2023-04-24T11:49:43;10.70;;;4.40;;
2928;SDS011;1474;51.460;7.150;2023-04-24T11:52:09;6.28;;;4.28;;
2928;SDS011;1474;51.460;7.150;2023-04-24T11:54:35;4.20;;;3.25;;
2928;SDS011;1474;51.460;7.150;2023-04-24T11:57:05;11.45;;;4.30;;
2928;SDS011;1474;51.460;7.150;2023-04-24T11:59:40;8.57;;;3.33;;
2928;SDS011;1474;51.460;7.150;2023-04-24T12:02:06;3.45;;;2.40;;
2928;SDS011;1474;51.460;7.150;2023-04-24T12:04:40;6.68;;;3.13;;
2928;SDS011;1474;51.460;7.150;2023-04-24T12:07:06;6.95;;;3.35;;
2928;SDS011;1474;51.460;7.150;2023-04-24T12:09:40;5.72;;;2.75;;
2928;SDS011;1474;51.460;7.150;2023-04-24T12:12:10;4.03;;;2.72;;
2928;SDS011;1474;51.460;7.150;2023-04-24T12:14:50;7.15;;;3.30;;
2928;SDS011;1474;51.460;7.150;2023-04-24T12:19:49;6.30;;;2.95;;
2928;SDS011;1474;51.460;7.150;2023-04-24T12:22:15;5.97;;;2.75;;
2928;SDS011;1474;51.460;7.150;2023-04-24T12:24:57;6.82;;;2.78;;
2928;SDS011;1474;51.460;7.150;2023-04-24T12:27:33;5.72;;;2.58;;
2928;SDS011;1474;51.460;7.150;2023-04-24T12:29:59;4.32;;;2.47;;
2928;SDS011;1474;51.460;7.150;2023-04-24T12:32:27;3.13;;;2.63;;
2928;SDS011;1474;51.460;7.150;2023-04-24T12:34:53;4.75;;;2.10;;
2928;SDS011;1474;51.460;7.150;2023-04-24T12:37:20;5.50;;;2.25;;
2928;SDS011;1474;51.460;7.150;2023-04-24T12:42:28;4.43;;;2.17;;
2928;SDS011;1474;51.460;7.150;2023-04-24T12:45:04;4.50;;;2.55;;
2928;SDS011;1474;51.460;7.150;2023-04-24T12:47:31;4.13;;;2.53;;
2928;SDS011;1474;51.460;7.150;2023-04-24T12:49:58;7.25;;;2.55;;
2928;SDS011;1474;51.460;7.150;2023-04-24T12:52:25;7.07;;;2.72;;
2928;SDS011;1474;51.460;7.150;2023-04-24T12:54:55;4.60;;;2.40;;
2928;SDS011;1474;51.460;7.150;2023-04-24T12:57:22;2.58;;;1.88;;
2928;SDS011;1474;51.460;7.150;2023-04-24T12:59:48;2.95;;;1.90;;
2928;SDS011;1474;51.460;7.150;2023-04-24T13:02:14;3.60;;;2.05;;
2928;SDS011;1474;51.460;7.150;2023-04-24T13:04:46;2.90;;;1.73;;
2928;SDS011;1474;51.460;7.150;2023-04-24T13:07:15;6.95;;;1.75;;
2928;SDS011;1474;51.460;7.150;2023-04-24T13:09:41;3.58;;;1.67;;
2928;SDS011;1474;51.460;7.150;2023-04-24T13:12:08;3.72;;;1.90;;
2928;SDS011;1474;51.460;7.150;2023-04-24T13:14:34;2.17;;;1.75;;
2928;SDS011;1474;51.460;7.150;2023-04-24T13:17:00;3.20;;;1.95;;
2928;SDS011;1474;51.460;7.150;2023-04-24T13:19:26;5.60;;;2.28;;
2928;SDS011;1474;51.460;7.150;2023-04-24T13:21:52;4.43;;;1.98;;
2928;SDS011;1474;51.460;7.150;2023-04-24T13:24:20;2.25;;;1.88;;
2928;SDS011;1474;51.460;7.150;2023-04-24T13:26:49;2.30;;;1.55;;
2928;SDS011;1474;51.460;7.150;2023-04-24T13:29:15;3.53;;;1.60;;
2928;SDS011;1474;51.460;7.150;2023-04-24T13:31:41;2.17;;;1.85;;
2928;SDS011;1474;51.460;7.150;2023-04-24T13:34:06;1.83;;;1.35;;
2928;SDS011;1474;51.460;7.150;2023-04-24T13:36:32;1.25;;;0.95;;
2928;SDS011;1474;51.460;7.150;2023-04-24T13:38:58;1.10;;;0.90;;
2928;SDS011;1474;51.460;7.150;2023-04-24T13:41:23;1.83;;;0.82;;
2928;SDS011;1474;51.460;7.150;2023-04-24T13:43:49;1.40;;;0.90;;
2928;SDS011;1474;51.460;7.150;2023-04-24T13:46:15;2.60;;;0.95;;
2928;SDS011;1474;51.460;7.150;2023-04-24T13:48:41;4.80;;;1.30;;
2928;SDS011;1474;51.460;7.150;2023-04-24T13:51:07;2.75;;;1.20;;
2928;SDS011;1474;51.460;7.150;2023-04-24T13:53:32;0.95;;;0.85;;
2928;SDS011;1474;51.460;7.150;2023-04-24T13:56:01;0.70;;;0.70;;
2928;SDS011;1474;51.460;7.150;2023-04-24T13:58:27;1.30;;;0.75;;
2928;SDS011;1474;51.460;7.150;2023-04-24T14:00:52;2.28;;;0.80;;
2928;SDS011;1474;51.460;7.150;2023-04-24T14:03:18;1.85;;;1.20;;
2928;SDS011;1474;51.460;7.150;2023-04-24T14:05:44;2.17;;;1.25;;
2928;SDS011;1474;51.460;7.150;2023-04-24T14:08:09;3.88;;;1.25;;
2928;SDS011;1474;51.460;7.150;2023-04-24T14:10:35;1.13;;;0.77;;
2928;SDS011;1474;51.460;7.150;2023-04-24T14:13:01;1.35;;;0.95;;
2928;SDS011;1474;51.460;7.150;2023-04-24T14:15:26;3.53;;;0.77;;
2928;SDS011;1474;51.460;7.150;2023-04-24T14:17:53;1.63;;;1.00;;
2928;SDS011;1474;51.460;7.150;2023-04-24T14:20:18;3.20;;;1.02;;
2928;SDS011;1474;51.460;7.150;2023-04-24T14:22:44;4.28;;;0.90;;
2928;SDS011;1474;51.460;7.150;2023-04-24T14:25:10;1.27;;;0.82;;
2928;SDS011;1474;51.460;7.150;2023-04-24T14:27:36;4.90;;;1.13;;
2928;SDS011;1474;51.460;7.150;2023-04-24T14:30:02;1.80;;;0.77;;
2928;SDS011;1474;51.460;7.150;2023-04-24T14:32:29;0.88;;;0.50;;
2928;SDS011;1474;51.460;7.150;2023-04-24T14:34:54;1.98;;;0.85;;
2928;SDS011;1474;51.460;7.150;2023-04-24T14:37:20;1.98;;;1.08;;
2928;SDS011;1474;51.460;7.150;2023-04-24T14:39:46;1.98;;;1.00;;
2928;SDS011;1474;51.460;7.150;2023-04-24T14:42:11;3.85;;;0.93;;
2928;SDS011;1474;51.460;7.150;2023-04-24T14:44:37;1.42;;;0.73;;
2928;SDS011;1474;51.460;7.150;2023-04-24T14:47:02;1.80;;;1.33;;
2928;SDS011;1474;51.460;7.150;2023-04-24T14:49:28;1.83;;;0.80;;
2928;SDS011;1474;51.460;7.150;2023-04-24T14:51:54;3.05;;;1.00;;
2928;SDS011;1474;51.460;7.150;2023-04-24T14:54:20;0.98;;;0.80;;
2928;SDS011;1474;51.460;7.150;2023-04-24T14:56:48;1.90;;;0.82;;
2928;SDS011;1474;51.460;7.150;2023-04-24T14:59:14;1.60;;;0.68;;
2928;SDS011;1474;51.460;7.150;2023-04-24T15:01:39;3.13;;;1.02;;
2928;SDS011;1474;51.460;7.150;2023-04-24T15:04:05;5.75;;;1.65;;
2928;SDS011;1474;51.460;7.150;2023-04-24T15:06:31;1.83;;;1.05;;
2928;SDS011;1474;51.460;7.150;2023-04-24T15:08:56;2.85;;;1.80;;
2928;SDS011;1474;51.460;7.150;2023-04-24T15:11:22;1.40;;;1.30;;
2928;SDS011;1474;51.460;7.150;2023-04-24T15:13:48;3.60;;;1.20;;
2928;SDS011;1474;51.460;7.150;2023-04-24T15:16:14;2.30;;;1.23;;
2928;SDS011;1474;51.460;7.150;2023-04-24T15:18:40;2.55;;;1.38;;
2928;SDS011;1474;51.460;7.150;2023-04-24T15:21:06;2.75;;;1.38;;
2928;SDS011;1474;51.460;7.150;2023-04-24T15:23:32;1.83;;;1.38;;
2928;SDS011;1474;51.460;7.150;2023-04-24T15:25:57;2.17;;;1.30;;
2928;SDS011;1474;51.460;7.150;2023-04-24T15:28:24;1.80;;;1.27;;
2928;SDS011;1474;51.460;7.150;2023-04-24T15:30:50;1.52;;;1.42;;
2928;SDS011;1474;51.460;7.150;2023-04-24T15:33:15;2.17;;;1.30;;